Time;durP1;ratioP1;P1;durP2;ratioP2;P2;SDS_P1;SDS_P2;PMS_P1;PMS_P2;Temp;Humidity;BMP_temperature;BMP_pressure;BME280_temperature;BME280_humidity;BME280_pressure;Samples;Min_cycle;Max_cycle;Signal;HPM_P1;HPM_P2
2023/09/18 00:00:11;;;;;;;14.55;11.40;;;;;;;15.15;61.90;100918.00;5022876;28;20065;-72
2023/09/18 00:02:38;;;;;;;11.88;10.55;;;;;;;15.22;62.13;100916.72;5018957;28;20041;-72
2023/09/18 00:05:04;;;;;;;14.88;10.68;;;;;;;15.27;62.06;100911.19;5022065;28;20052;-73
2023/09/18 00:07:29;;;;;;;12.57;9.77;;;;;;;15.30;62.00;100908.38;5018053;28;20033;-68
2023/09/18 00:09:55;;;;;;;14.60;10.60;;;;;;;15.27;61.94;100906.75;5020397;28;20055;-68
2023/09/18 00:12:23;;;;;;;11.63;10.02;;;;;;;15.27;62.20;100901.50;5030508;28;20037;-68
2023/09/18 00:14:49;;;;;;;12.70;10.55;;;;;;;15.32;61.50;100909.97;5021993;28;20053;-68
2023/09/18 00:17:19;;;;;;;13.32;11.35;;;;;;;15.28;61.73;100903.22;5021091;28;20039;-67
2023/09/18 00:19:47;;;;;;;10.43;9.32;;;;;;;15.29;61.73;100902.25;5019711;28;20055;-70
2023/09/18 00:22:15;;;;;;;11.37;10.03;;;;;;;15.24;61.81;100901.69;5023976;28;20075;-70
2023/09/18 00:24:40;;;;;;;12.65;10.15;;;;;;;15.23;61.67;100907.88;5005222;28;20124;-70
2023/09/18 00:27:11;;;;;;;11.77;9.40;;;;;;;15.24;61.75;100900.81;5022522;28;20206;-70
2023/09/18 00:29:37;;;;;;;11.03;8.83;;;;;;;15.23;61.69;100893.88;5021156;28;20045;-67
2023/09/18 00:32:05;;;;;;;9.95;8.98;;;;;;;15.18;61.21;100889.69;5036797;28;20266;-68
2023/09/18 00:34:31;;;;;;;13.32;10.25;;;;;;;15.05;61.36;100891.34;5016277;28;20127;-67
2023/09/18 00:36:59;;;;;;;11.27;10.07;;;;;;;15.01;61.58;100879.31;5035594;28;20040;-68
2023/09/18 00:39:27;;;;;;;11.43;10.25;;;;;;;15.05;61.93;100866.81;5021363;28;20045;-67
2023/09/18 00:41:54;;;;;;;11.77;9.80;;;;;;;15.08;62.01;100867.50;5018610;28;20040;-67
2023/09/18 00:44:28;;;;;;;11.10;9.93;;;;;;;15.10;61.94;100859.50;5022657;28;20173;-67
2023/09/18 00:46:57;;;;;;;14.50;10.48;;;;;;;15.09;61.96;100845.50;5019757;28;20033;-67
2023/09/18 00:49:23;;;;;;;17.50;11.00;;;;;;;15.08;61.93;100832.41;4999330;28;20045;-67
2023/09/18 00:51:50;;;;;;;16.20;12.10;;;;;;;15.00;61.73;100830.25;5019797;28;20022;-71
2023/09/18 00:54:19;;;;;;;12.25;11.05;;;;;;;14.98;62.25;100826.84;5033841;28;20132;-70
2023/09/18 00:56:48;;;;;;;16.35;11.05;;;;;;;14.99;62.24;100818.00;5037344;28;20037;-70
2023/09/18 00:59:14;;;;;;;12.30;11.00;;;;;;;15.03;61.89;100793.19;5039470;28;20128;-70
2023/09/18 01:01:46;;;;;;;15.00;11.52;;;;;;;15.01;62.23;100784.56;5018263;28;20085;-71
2023/09/18 01:04:13;;;;;;;15.15;11.80;;;;;;;15.00;62.42;100780.25;5007026;28;20053;-70
2023/09/18 01:06:41;;;;;;;17.15;12.05;;;;;;;14.95;62.44;100766.53;5026706;28;20166;-70
2023/09/18 01:09:12;;;;;;;12.57;11.27;;;;;;;15.04;62.38;100757.22;5046124;28;20525;-70
2023/09/18 01:12:01;;;;;;;18.48;13.40;;;;;;;15.11;62.10;100746.22;5022644;28;20117;-70
2023/09/18 01:14:55;;;;;;;14.85;13.05;;;;;;;15.18;62.04;100742.25;5018001;28;20061;-70
2023/09/18 01:17:20;;;;;;;18.60;13.85;;;;;;;15.16;62.09;100741.50;5042113;28;20534;-70
2023/09/18 01:19:47;;;;;;;18.67;13.98;;;;;;;15.18;61.98;100738.78;5035955;28;20037;-70
2023/09/18 01:22:15;;;;;;;17.15;13.93;;;;;;;15.17;62.15;100734.47;5008833;28;20063;-70
2023/09/18 01:24:41;;;;;;;21.45;15.35;;;;;;;15.16;62.00;100724.88;5025428;28;20963;-71
2023/09/18 01:27:16;;;;;;;17.30;15.00;;;;;;;15.21;62.16;100722.78;5028454;28;20037;-70
2023/09/18 01:29:43;;;;;;;18.02;14.27;;;;;;;15.20;61.92;100720.28;5019879;28;20033;-70
2023/09/18 01:32:08;;;;;;;18.27;14.77;;;;;;;15.21;61.94;100714.06;5029967;28;20556;-71
2023/09/18 01:34:37;;;;;;;18.88;15.18;;;;;;;15.09;62.19;100705.13;5023083;28;20140;-70
2023/09/18 01:37:07;;;;;;;21.40;14.70;;;;;;;15.16;62.15;100704.66;5040514;28;20467;-71
2023/09/18 01:39:34;;;;;;;18.58;15.27;;;;;;;15.15;62.13;100702.13;5029485;28;20045;-70
2023/09/18 01:42:01;;;;;;;19.17;15.10;;;;;;;15.21;62.12;100704.38;5022785;28;20033;-69
2023/09/18 01:44:28;;;;;;;15.77;13.63;;;;;;;15.22;61.95;100702.63;5023641;28;20045;-68
2023/09/18 01:47:01;;;;;;;16.55;13.57;;;;;;;15.17;61.96;100706.38;5023125;28;20048;-68
2023/09/18 01:49:30;;;;;;;16.23;14.05;;;;;;;15.20;61.79;100702.69;5021322;28;20037;-70
2023/09/18 01:51:58;;;;;;;18.30;13.73;;;;;;;15.21;61.62;100693.84;5025569;28;20033;-70
2023/09/18 01:54:24;;;;;;;19.70;13.93;;;;;;;15.21;61.72;100683.31;5019097;28;20087;-70
2023/09/18 01:56:53;;;;;;;17.33;12.98;;;;;;;15.26;61.67;100683.03;5042358;28;20082;-70
2023/09/18 01:59:19;;;;;;;17.60;14.32;;;;;;;15.29;61.58;100680.25;5028783;28;20037;-70
2023/09/18 02:01:46;;;;;;;19.30;14.18;;;;;;;15.30;61.51;100681.91;5025679;28;20032;-70
2023/09/18 02:04:12;;;;;;;16.85;14.43;;;;;;;15.25;61.54;100684.84;5025742;28;20048;-70
2023/09/18 02:06:37;;;;;;;22.42;15.75;;;;;;;15.23;61.68;100685.88;5026188;28;21606;-70
2023/09/18 02:09:09;;;;;;;20.98;14.98;;;;;;;15.25;62.02;100691.91;5026171;28;20037;-70
2023/09/18 02:11:42;;;;;;;21.48;14.23;;;;;;;15.29;61.73;100688.97;5020427;28;20125;-70
2023/09/18 02:14:09;;;;;;;21.70;15.27;;;;;;;15.25;62.17;100694.53;5042566;28;20140;-70
2023/09/18 02:16:37;;;;;;;21.92;15.98;;;;;;;15.34;62.09;100692.16;5009436;28;20196;-70
2023/09/18 02:19:05;;;;;;;24.38;16.27;;;;;;;15.33;61.89;100682.56;5010470;28;20049;-69
2023/09/18 02:21:31;;;;;;;18.25;14.85;;;;;;;15.36;61.84;100684.16;5020290;28;20103;-71
2023/09/18 02:23:57;;;;;;;28.77;17.45;;;;;;;15.32;61.87;100682.66;5025135;28;20585;-70
2023/09/18 02:26:24;;;;;;;22.35;16.27;;;;;;;15.27;62.19;100669.78;5023959;28;20040;-70
2023/09/18 02:28:55;;;;;;;22.80;15.40;;;;;;;15.33;62.07;100671.22;5024337;28;20045;-68
2023/09/18 02:31:22;;;;;;;20.13;14.05;;;;;;;15.31;62.32;100666.03;5024171;28;20044;-70
2023/09/18 02:33:48;;;;;;;20.95;15.52;;;;;;;15.39;62.16;100668.16;5013329;28;20052;-71
2023/09/18 02:36:14;;;;;;;20.48;14.82;;;;;;;15.37;62.13;100664.78;5004745;28;20088;-72
2023/09/18 02:38:42;;;;;;;19.65;14.85;;;;;;;15.36;62.38;100657.84;5018923;28;20044;-70
2023/09/18 02:41:08;;;;;;;22.60;16.15;;;;;;;15.40;62.37;100659.34;5025377;28;20395;-70
2023/09/18 02:43:33;;;;;;;21.42;16.30;;;;;;;15.42;62.39;100656.63;5020351;28;20039;-71
2023/09/18 02:46:01;;;;;;;20.52;15.55;;;;;;;15.41;62.46;100653.09;5043477;28;20033;-71
2023/09/18 02:48:27;;;;;;;22.45;15.52;;;;;;;15.45;62.22;100651.13;5031134;28;20041;-70
2023/09/18 02:50:55;;;;;;;24.45;17.35;;;;;;;15.44;62.25;100650.31;5009508;28;20455;-72
2023/09/18 02:53:22;;;;;;;24.40;16.83;;;;;;;15.47;62.40;100639.56;5023428;28;20051;-71
2023/09/18 02:55:50;;;;;;;24.75;17.48;;;;;;;15.56;61.92;100638.97;5015263;28;20026;-70
2023/09/18 02:58:16;;;;;;;26.08;18.63;;;;;;;15.49;62.29;100627.13;5010940;28;20040;-70
2023/09/18 03:00:44;;;;;;;23.23;16.63;;;;;;;15.50;62.32;100620.91;5018489;28;20040;-71
2023/09/18 03:03:11;;;;;;;27.73;18.92;;;;;;;15.45;62.70;100620.38;5024263;28;20170;-71
2023/09/18 03:05:39;;;;;;;28.35;17.55;;;;;;;15.48;62.72;100614.94;5020458;28;20028;-70
2023/09/18 03:08:06;;;;;;;25.35;17.48;;;;;;;15.46;62.67;100614.19;5025078;28;20087;-71
2023/09/18 03:10:37;;;;;;;25.40;17.17;;;;;;;15.47;62.76;100618.50;5018988;28;20044;-70
2023/09/18 03:13:03;;;;;;;29.05;19.10;;;;;;;15.48;62.62;100604.38;5024766;28;20037;-71
2023/09/18 03:15:31;;;;;;;27.80;19.55;;;;;;;15.50;62.76;100602.47;5024765;28;20036;-70
2023/09/18 03:17:58;;;;;;;24.92;17.95;;;;;;;15.49;62.61;100590.25;5020464;28;20052;-71
2023/09/18 03:20:24;;;;;;;26.20;18.20;;;;;;;15.50;62.32;100597.19;5043039;28;20036;-70
2023/09/18 03:22:54;;;;;;;25.13;17.20;;;;;;;15.48;62.50;100591.22;4979425;28;20470;-70
2023/09/18 03:25:21;;;;;;;23.88;16.60;;;;;;;15.49;62.70;100590.25;5010080;28;20072;-70
2023/09/18 03:27:47;;;;;;;23.13;16.55;;;;;;;15.55;62.39;100579.34;5021307;28;21686;-70
2023/09/18 03:30:15;;;;;;;23.65;16.67;;;;;;;15.62;62.29;100569.25;5023474;28;20050;-70
2023/09/18 03:32:42;;;;;;;23.75;16.00;;;;;;;15.61;62.22;100566.69;5005523;28;20406;-71
2023/09/18 03:35:17;;;;;;;21.17;16.40;;;;;;;15.58;62.07;100563.31;5023611;28;20479;-70
2023/09/18 03:37:58;;;;;;;21.83;16.33;;;;;;;15.57;62.46;100561.63;5038766;28;20036;-70
2023/09/18 03:40:24;;;;;;;20.77;16.05;;;;;;;15.55;61.96;100547.72;5042969;28;20056;-70
2023/09/18 03:42:49;;;;;;;21.30;16.23;;;;;;;15.53;62.39;100549.63;5017118;28;20200;-70
2023/09/18 03:45:17;;;;;;;20.05;15.20;;;;;;;15.55;62.05;100537.19;5027160;28;20028;-70
2023/09/18 03:47:49;;;;;;;23.70;15.23;;;;;;;15.49;62.15;100529.69;5002138;28;21395;-73
2023/09/18 03:50:15;;;;;;;23.15;15.38;;;;;;;15.47;62.37;100528.94;5026619;28;20032;-71
2023/09/18 03:52:41;;;;;;;21.20;14.60;;;;;;;15.42;62.23;100525.78;5017414;28;20109;-72
2023/09/18 03:55:08;;;;;;;22.88;14.95;;;;;;;15.44;62.52;100516.00;5024391;28;20115;-72
2023/09/18 03:57:39;;;;;;;20.17;15.35;;;;;;;15.44;62.28;100504.59;5039525;28;20044;-72
2023/09/18 04:00:08;;;;;;;20.42;15.13;;;;;;;15.47;62.15;100501.78;5025816;28;20032;-72
2023/09/18 04:02:40;;;;;;;19.30;15.38;;;;;;;15.48;62.36;100487.63;5038156;28;20155;-72
2023/09/18 04:05:07;;;;;;;21.17;15.05;;;;;;;15.48;61.84;100483.25;5024454;28;20032;-72
2023/09/18 04:07:33;;;;;;;22.05;14.50;;;;;;;15.41;61.95;100474.03;5034014;28;20037;-72
2023/09/18 04:10:04;;;;;;;20.23;14.05;;;;;;;15.39;62.26;100465.41;5021651;28;20075;-69
2023/09/18 04:12:31;;;;;;;20.20;14.68;;;;;;;15.40;62.21;100464.47;5002750;28;20044;-71
2023/09/18 04:14:59;;;;;;;19.50;13.45;;;;;;;15.39;61.84;100452.22;5025641;28;20233;-68
2023/09/18 04:17:27;;;;;;;16.88;13.57;;;;;;;15.40;62.02;100453.94;5045461;28;20061;-67
2023/09/18 04:19:54;;;;;;;19.48;13.90;;;;;;;15.39;61.82;100436.44;5041083;28;20148;-70
2023/09/18 04:22:29;;;;;;;16.02;13.23;;;;;;;15.37;61.80;100435.69;5019865;28;20122;-70
2023/09/18 04:24:55;;;;;;;17.85;12.65;;;;;;;15.34;62.38;100434.09;5036182;28;20017;-70
2023/09/18 04:27:20;;;;;;;22.02;13.65;;;;;;;15.36;61.70;100420.84;5012173;28;20045;-69
2023/09/18 04:29:47;;;;;;;23.02;14.38;;;;;;;15.32;62.28;100424.63;5016593;28;20547;-67
2023/09/18 04:32:12;;;;;;;18.02;13.70;;;;;;;15.34;62.22;100412.19;5035463;28;20041;-66
2023/09/18 04:34:39;;;;;;;17.45;12.82;;;;;;;15.30;62.10;100411.56;5031114;28;20286;-69
2023/09/18 04:37:04;;;;;;;17.73;11.48;;;;;;;15.31;62.22;100408.00;5028705;28;20033;-69
2023/09/18 04:39:33;;;;;;;14.48;12.52;;;;;;;15.32;62.17;100398.31;5026579;28;20564;-68
2023/09/18 04:42:03;;;;;;;16.58;12.38;;;;;;;15.31;61.96;100394.00;4986777;28;20457;-69
2023/09/18 04:44:30;;;;;;;19.83;13.07;;;;;;;15.26;62.12;100390.81;5031213;28;20037;-69
2023/09/18 04:46:57;;;;;;;16.05;12.75;;;;;;;15.24;62.21;100390.06;5023532;28;20044;-68
2023/09/18 04:49:23;;;;;;;22.27;11.95;;;;;;;15.20;61.99;100378.06;5029115;28;20041;-68
2023/09/18 04:51:49;;;;;;;16.15;12.13;;;;;;;15.34;61.68;100372.72;5026933;28;20601;-69
2023/09/18 04:54:23;;;;;;;27.13;14.95;;;;;;;15.35;61.53;100366.50;5028194;28;20549;-70
2023/09/18 04:56:49;;;;;;;20.90;12.55;;;;;;;15.34;61.59;100356.91;5011550;28;20626;-70
2023/09/18 04:59:15;;;;;;;16.13;10.93;;;;;;;15.32;61.58;100345.63;5027310;28;20033;-70
2023/09/18 05:01:42;;;;;;;14.52;11.02;;;;;;;15.37;61.69;100340.88;5022880;28;20041;-70
2023/09/18 05:04:11;;;;;;;16.77;10.52;;;;;;;15.31;61.79;100328.16;5048173;28;20033;-70
2023/09/18 05:06:40;;;;;;;18.17;11.65;;;;;;;15.29;61.83;100319.53;5030083;28;20537;-69
2023/09/18 05:09:06;;;;;;;15.73;10.75;;;;;;;15.48;61.21;100317.31;5046651;28;20080;-69
2023/09/18 05:11:34;;;;;;;14.15;9.70;;;;;;;15.52;61.27;100316.13;5027937;28;20061;-69
2023/09/18 05:14:00;;;;;;;12.68;10.70;;;;;;;15.54;60.89;100308.97;5043001;28;20033;-68
2023/09/18 05:16:25;;;;;;;12.77;9.45;;;;;;;15.51;61.13;100297.81;5026334;28;20036;-69
2023/09/18 05:18:51;;;;;;;15.48;8.80;;;;;;;15.62;61.37;100290.00;5025494;28;20580;-70
2023/09/18 05:21:22;;;;;;;12.90;8.80;;;;;;;15.72;61.08;100290.19;5029627;28;20037;-69
2023/09/18 05:23:48;;;;;;;12.77;9.00;;;;;;;15.66;60.88;100285.34;5028059;28;20120;-69
2023/09/18 05:26:19;;;;;;;13.85;8.82;;;;;;;15.75;60.54;100284.69;5015171;28;20124;-70
2023/09/18 05:28:46;;;;;;;14.27;9.65;;;;;;;15.78;60.67;100284.50;5044942;28;20761;-70
2023/09/18 05:31:15;;;;;;;16.33;10.40;;;;;;;15.87;60.46;100280.34;5029414;28;20087;-67
2023/09/18 05:33:41;;;;;;;13.77;9.23;;;;;;;15.87;60.56;100278.56;5008644;28;20127;-69
2023/09/18 05:36:06;;;;;;;12.13;8.35;;;;;;;15.84;60.42;100273.53;5027217;28;20163;-68
2023/09/18 05:38:32;;;;;;;12.38;8.23;;;;;;;15.96;60.11;100269.97;5026621;28;20102;-69
2023/09/18 05:40:58;;;;;;;12.77;8.23;;;;;;;16.05;60.10;100265.03;5025196;28;20040;-69
2023/09/18 05:43:23;;;;;;;12.80;8.48;;;;;;;16.05;59.74;100262.41;5016967;28;20033;-70
2023/09/18 05:45:49;;;;;;;17.88;8.77;;;;;;;15.98;59.85;100260.19;5025958;28;20504;-71
2023/09/18 05:48:15;;;;;;;9.38;7.70;;;;;;;16.05;59.81;100262.41;5026747;28;20103;-70
2023/09/18 05:50:41;;;;;;;14.48;8.32;;;;;;;16.01;59.88;100251.22;5019931;28;20033;-69
2023/09/18 05:53:07;;;;;;;12.60;8.52;;;;;;;16.18;59.18;100234.19;5021150;28;20048;-69
2023/09/18 05:55:34;;;;;;;15.48;8.60;;;;;;;16.20;59.18;100224.38;5025655;28;20096;-69
2023/09/18 05:58:01;;;;;;;12.65;8.10;;;;;;;16.27;58.95;100216.84;5009640;28;20095;-69
2023/09/18 06:00:26;;;;;;;12.88;7.55;;;;;;;16.38;58.58;100220.34;5029104;28;20033;-69
2023/09/18 06:02:52;;;;;;;9.57;7.18;;;;;;;16.94;56.67;100210.91;5000802;28;20052;-69
2023/09/18 06:05:21;;;;;;;7.63;6.32;;;;;;;17.12;55.77;100214.75;5024878;28;20102;-69
2023/09/18 06:07:48;;;;;;;12.57;7.93;;;;;;;17.44;55.18;100209.56;5034341;28;20038;-71
2023/09/18 06:10:13;;;;;;;10.27;6.47;;;;;;;17.69;54.29;100217.34;5023615;28;20041;-70
2023/09/18 06:12:39;;;;;;;10.60;6.80;;;;;;;17.63;54.34;100208.97;5002783;28;20699;-70
2023/09/18 06:15:09;;;;;;;13.57;6.75;;;;;;;17.35;55.36;100215.56;5020760;28;20068;-70
2023/09/18 06:17:38;;;;;;;8.10;5.78;;;;;;;17.02;55.84;100219.06;5023970;28;20392;-69
2023/09/18 06:20:04;;;;;;;10.23;6.30;;;;;;;16.97;55.96;100221.22;5022074;28;20485;-69
2023/09/18 06:22:29;;;;;;;9.55;8.52;;;;;;;16.73;56.62;100218.63;5024355;28;21036;-70
2023/09/18 06:24:55;;;;;;;7.18;6.20;;;;;;;16.78;56.47;100214.72;5019632;28;20036;-70
2023/09/18 06:27:20;;;;;;;10.85;6.28;;;;;;;16.76;56.38;100203.44;5025910;28;20057;-69
2023/09/18 06:29:46;;;;;;;7.22;6.25;;;;;;;16.73;57.08;100193.09;5023144;28;20120;-69
2023/09/18 06:32:12;;;;;;;13.57;6.55;;;;;;;16.77;56.81;100185.81;5019445;28;20412;-69
2023/09/18 06:34:38;;;;;;;8.20;6.22;;;;;;;16.79;56.70;100173.34;5024687;28;20370;-69
2023/09/18 06:37:04;;;;;;;13.38;6.95;;;;;;;16.77;56.78;100177.88;5035348;28;20388;-70
2023/09/18 06:39:29;;;;;;;10.95;6.85;;;;;;;16.74;56.91;100168.38;5022380;28;20562;-69
2023/09/18 06:41:55;;;;;;;10.10;5.95;;;;;;;16.57;57.32;100167.03;5022351;28;20112;-69
2023/09/18 06:44:23;;;;;;;8.98;5.82;;;;;;;16.47;57.95;100165.25;5022316;28;20511;-70
2023/09/18 06:46:49;;;;;;;8.52;5.00;;;;;;;16.54;57.58;100153.25;5020247;28;20044;-69
2023/09/18 06:49:14;;;;;;;9.00;5.88;;;;;;;16.64;57.10;100156.84;5023468;28;20045;-70
2023/09/18 06:51:40;;;;;;;8.43;5.15;;;;;;;16.69;57.13;100174.97;5022525;28;20041;-70
2023/09/18 06:54:05;;;;;;;10.45;6.05;;;;;;;16.57;57.32;100192.59;5019566;28;20401;-70
2023/09/18 06:56:31;;;;;;;13.13;5.88;;;;;;;16.59;57.50;100185.41;5038696;28;20026;-70
2023/09/18 06:58:56;;;;;;;7.53;5.22;;;;;;;16.44;57.40;100202.38;4992132;28;20065;-70
2023/09/18 07:01:24;;;;;;;8.32;5.47;;;;;;;16.46;57.38;100190.75;5023611;28;20060;-70
2023/09/18 07:03:50;;;;;;;8.32;5.82;;;;;;;16.57;57.61;100184.66;5020299;28;20052;-71
2023/09/18 07:06:16;;;;;;;6.43;5.22;;;;;;;16.90;56.39;100185.72;5023030;28;20116;-70
2023/09/18 07:08:44;;;;;;;9.65;5.72;;;;;;;16.72;57.24;100186.13;5021815;28;20186;-70
2023/09/18 07:11:11;;;;;;;5.45;4.95;;;;;;;16.83;56.81;100186.19;5020317;28;20097;-70
2023/09/18 07:13:40;;;;;;;5.53;4.68;;;;;;;16.81;56.49;100177.53;5024278;28;20086;-70
2023/09/18 07:16:06;;;;;;;6.40;5.35;;;;;;;16.72;56.65;100183.50;5023139;28;20037;-70
2023/09/18 07:18:32;;;;;;;6.72;4.68;;;;;;;17.04;56.20;100185.47;5024632;28;20119;-70
2023/09/18 07:20:58;;;;;;;9.95;5.28;;;;;;;17.12;56.09;100188.34;5019387;28;20136;-70
2023/09/18 07:23:23;;;;;;;6.95;4.75;;;;;;;17.04;55.98;100185.47;5026739;28;20135;-70
2023/09/18 07:25:49;;;;;;;7.30;4.63;;;;;;;17.26;55.76;100178.50;5023523;28;20158;-70
2023/09/18 07:28:19;;;;;;;8.52;4.38;;;;;;;17.21;55.59;100174.41;5018957;28;20067;-70
2023/09/18 07:30:46;;;;;;;5.82;4.22;;;;;;;17.34;55.43;100165.53;5022653;28;20407;-71
2023/09/18 07:33:12;;;;;;;6.93;3.90;;;;;;;17.35;55.08;100161.91;5019339;28;20124;-70
2023/09/18 07:35:38;;;;;;;9.45;4.40;;;;;;;17.45;55.10;100168.16;5022367;28;20036;-70
2023/09/18 07:38:04;;;;;;;5.20;4.25;;;;;;;17.50;55.19;100171.28;5021088;28;20534;-70
2023/09/18 07:40:30;;;;;;;9.05;4.68;;;;;;;17.39;55.67;100169.47;5022110;28;20522;-70
2023/09/18 07:42:55;;;;;;;6.13;4.15;;;;;;;17.54;55.58;100169.25;5020643;28;20045;-71
2023/09/18 07:45:24;;;;;;;8.82;3.67;;;;;;;17.44;55.98;100177.00;5004583;28;20033;-70
2023/09/18 07:47:49;;;;;;;9.48;3.55;;;;;;;17.41;56.15;100177.28;5041488;28;20263;-70
2023/09/18 07:50:15;;;;;;;8.25;4.43;;;;;;;17.55;56.06;100184.94;5027342;28;20033;-70
2023/09/18 07:52:40;;;;;;;7.63;4.30;;;;;;;17.39;56.29;100195.03;5020079;28;20036;-70
2023/09/18 07:55:07;;;;;;;5.90;4.07;;;;;;;17.42;55.98;100200.06;5002503;28;20040;-70
2023/09/18 07:57:34;;;;;;;11.40;3.90;;;;;;;17.39;55.88;100195.88;5020845;28;20079;-70
2023/09/18 08:00:09;;;;;;;5.47;3.58;;;;;;;17.38;55.95;100206.56;5016981;28;20036;-71
2023/09/18 08:02:40;;;;;;;3.63;3.20;;;;;;;17.51;55.83;100203.81;5021457;28;20037;-70
2023/09/18 08:05:15;;;;;;;5.93;3.38;;;;;;;17.55;55.62;100189.41;5020406;28;20041;-70
2023/09/18 08:07:40;;;;;;;6.50;4.25;;;;;;;17.50;55.60;100183.66;5023878;28;20045;-68
2023/09/18 08:10:08;;;;;;;10.95;3.92;;;;;;;17.67;55.42;100187.56;5018216;28;20740;-68
2023/09/18 08:12:34;;;;;;;6.38;3.92;;;;;;;17.70;55.72;100189.97;5015318;28;20151;-68
2023/09/18 08:15:02;;;;;;;4.20;3.55;;;;;;;17.76;55.85;100192.09;5024182;28;20174;-68
2023/09/18 08:17:28;;;;;;;5.55;3.90;;;;;;;18.05;55.46;100192.34;5021669;28;20072;-69
2023/09/18 08:19:54;;;;;;;9.30;4.28;;;;;;;17.87;55.71;100197.34;5018843;28;20067;-68
2023/09/18 08:22:21;;;;;;;7.13;4.40;;;;;;;18.09;55.65;100198.25;5018138;28;20048;-68
2023/09/18 08:24:48;;;;;;;6.18;4.07;;;;;;;18.46;55.04;100211.91;5019324;28;20965;-68
2023/09/18 08:27:16;;;;;;;7.97;4.88;;;;;;;17.88;56.29;100211.44;5038154;28;20083;-68
2023/09/18 08:29:43;;;;;;;5.70;4.15;;;;;;;18.00;56.02;100220.97;5021063;28;20090;-69
2023/09/18 08:32:09;;;;;;;10.35;4.57;;;;;;;17.92;55.83;100221.63;5014913;28;20040;-68
2023/09/18 08:34:35;;;;;;;6.80;4.07;;;;;;;17.92;56.66;100221.63;5023887;28;20029;-68
2023/09/18 08:37:02;;;;;;;14.63;5.20;;;;;;;17.67;57.01;100214.00;5016090;28;20025;-71
2023/09/18 08:39:29;;;;;;;6.13;4.43;;;;;;;17.83;56.83;100225.03;5024659;28;20120;-71
2023/09/18 08:41:59;;;;;;;7.68;3.83;;;;;;;17.71;57.28;100226.00;5021130;28;20029;-70
2023/09/18 08:44:26;;;;;;;11.02;4.53;;;;;;;17.59;57.57;100226.03;5028431;28;20034;-70
2023/09/18 08:46:53;;;;;;;16.13;4.65;;;;;;;17.71;57.42;100236.56;5030001;28;20037;-69
2023/09/18 08:49:21;;;;;;;10.52;4.53;;;;;;;17.64;57.48;100237.06;5021577;28;20041;-70
2023/09/18 08:51:47;;;;;;;9.07;4.57;;;;;;;17.71;58.21;100236.56;5020361;28;20586;-71
2023/09/18 08:54:14;;;;;;;12.20;4.90;;;;;;;17.19;59.86;100237.06;5017572;28;20052;-70
2023/09/18 08:56:39;;;;;;;7.53;5.50;;;;;;;17.50;59.02;100239.97;5021647;28;20120;-68
2023/09/18 08:59:05;;;;;;;12.60;4.35;;;;;;;17.69;58.54;100233.22;5015168;28;20418;-69
2023/09/18 09:01:30;;;;;;;7.00;3.97;;;;;;;17.80;57.96;100204.09;5019538;28;20049;-68
2023/09/18 09:04:00;;;;;;;9.70;4.90;;;;;;;17.78;58.04;100193.69;5018008;28;20048;-71
2023/09/18 09:06:26;;;;;;;5.63;4.20;;;;;;;17.85;58.00;100212.53;5018425;28;20037;-69
2023/09/18 09:08:51;;;;;;;6.28;5.03;;;;;;;17.75;58.45;100216.88;5003794;28;20041;-69
2023/09/18 09:11:19;;;;;;;9.25;5.13;;;;;;;17.72;58.56;100227.69;5030786;28;20041;-71
2023/09/18 09:13:45;;;;;;;7.13;4.63;;;;;;;17.53;58.79;100229.16;5022515;28;20094;-72
2023/09/18 09:16:12;;;;;;;8.27;5.47;;;;;;;17.42;59.53;100237.88;5014896;28;20045;-68
2023/09/18 09:18:48;;;;;;;6.95;5.13;;;;;;;17.65;59.75;100244.03;5018701;28;20045;-69
2023/09/18 09:21:13;;;;;;;9.73;5.88;;;;;;;17.96;59.13;100225.72;5015546;28;20128;-69
2023/09/18 09:23:53;;;;;;;8.35;5.20;;;;;;;18.11;58.38;100228.03;5001658;28;20140;-69
2023/09/18 09:26:20;;;;;;;9.10;5.57;;;;;;;18.19;58.09;100226.47;5026332;28;20037;-68
2023/09/18 09:28:48;;;;;;;14.50;6.13;;;;;;;18.30;57.86;100217.66;5019795;28;20041;-69
2023/09/18 09:31:30;;;;;;;10.93;5.18;;;;;;;18.40;57.44;100202.69;5019635;28;20068;-69
2023/09/18 09:33:56;;;;;;;10.25;6.43;;;;;;;18.55;56.94;100205.03;5022216;28;20055;-71
2023/09/18 09:36:24;;;;;;;11.57;5.50;;;;;;;18.58;56.95;100224.09;5021937;28;20103;-69
2023/09/18 09:38:56;;;;;;;13.25;6.45;;;;;;;18.32;57.22;100222.81;5022318;28;20073;-68
2023/09/18 09:41:22;;;;;;;8.93;5.07;;;;;;;18.03;58.00;100220.75;5021561;28;20041;-71
2023/09/18 09:43:48;;;;;;;7.88;4.88;;;;;;;18.11;57.80;100222.75;5021168;28;20510;-68
2023/09/18 09:46:18;;;;;;;10.95;6.07;;;;;;;17.96;58.43;100214.25;5001629;28;20025;-68
2023/09/18 09:49:01;;;;;;;10.68;6.40;;;;;;;17.93;58.29;100223.28;5021724;28;20045;-71
2023/09/18 09:51:28;;;;;;;11.32;6.30;;;;;;;17.84;58.25;100226.69;5019258;28;20068;-68
2023/09/18 09:53:53;;;;;;;7.95;5.75;;;;;;;17.82;58.70;100231.25;5023505;28;20049;-71
2023/09/18 09:56:21;;;;;;;10.15;5.95;;;;;;;17.88;58.67;100216.72;5021631;28;20041;-68
2023/09/18 09:59:14;;;;;;;11.07;5.47;;;;;;;17.79;58.71;100245.56;5021929;28;20191;-71
2023/09/18 10:01:44;;;;;;;9.68;6.13;;;;;;;17.85;58.35;100260.94;5024241;28;20058;-68
2023/09/18 10:04:17;;;;;;;8.65;5.50;;;;;;;17.79;58.83;100256.13;5031657;28;20119;-68
2023/09/18 10:06:46;;;;;;;10.45;5.97;;;;;;;17.82;58.67;100268.25;5038627;28;20114;-71
2023/09/18 10:09:13;;;;;;;7.60;5.20;;;;;;;17.77;58.95;100258.06;5015033;28;20053;-71
2023/09/18 10:11:46;;;;;;;9.52;6.50;;;;;;;17.73;58.83;100246.06;5027510;28;20039;-68
2023/09/18 10:14:36;;;;;;;8.38;5.22;;;;;;;18.08;58.19;100237.06;5029671;28;20124;-70
2023/09/18 10:17:18;;;;;;;8.43;5.45;;;;;;;18.17;58.04;100238.97;5040534;28;20040;-70
2023/09/18 10:19:56;;;;;;;6.97;5.10;;;;;;;18.08;58.10;100246.81;5036114;28;20614;-71
2023/09/18 10:22:37;;;;;;;7.13;4.63;;;;;;;17.78;58.60;100251.81;5019471;28;20052;-68
2023/09/18 10:25:24;;;;;;;8.73;4.70;;;;;;;17.70;58.99;100246.31;5022669;28;20037;-68
2023/09/18 10:27:53;;;;;;;15.13;5.40;;;;;;;18.05;57.97;100251.38;5016378;28;20053;-68
2023/09/18 10:30:22;;;;;;;13.35;5.38;;;;;;;18.08;58.07;100262.69;5039621;28;20041;-69
2023/09/18 10:32:50;;;;;;;7.88;4.97;;;;;;;18.05;57.91;100259.31;5008312;28;20044;-69
2023/09/18 10:35:15;;;;;;;8.98;4.82;;;;;;;18.17;58.08;100260.13;5019442;28;20569;-69
2023/09/18 10:37:43;;;;;;;8.30;4.85;;;;;;;18.01;57.87;100259.69;5025031;28;20040;-69
2023/09/18 10:40:09;;;;;;;8.45;4.72;;;;;;;18.09;57.83;100248.47;5020286;28;20100;-71
2023/09/18 10:42:38;;;;;;;8.57;5.22;;;;;;;18.24;57.27;100244.63;5020273;28;20068;-70
2023/09/18 10:45:04;;;;;;;8.98;5.15;;;;;;;18.22;57.55;100250.03;5023047;28;20033;-70
2023/09/18 10:47:32;;;;;;;10.27;5.10;;;;;;;18.35;57.39;100246.38;5038531;28;22251;-70
2023/09/18 10:49:57;;;;;;;10.75;6.00;;;;;;;18.36;57.31;100235.66;5019799;28;20533;-71
2023/09/18 10:52:23;;;;;;;8.48;5.47;;;;;;;18.58;57.41;100236.50;5015459;28;20049;-71
2023/09/18 10:54:49;;;;;;;15.40;6.57;;;;;;;18.91;56.61;100254.03;5023888;28;20068;-71
2023/09/18 10:57:14;;;;;;;8.23;5.72;;;;;;;19.12;56.25;100248.69;5015693;28;20045;-71
2023/09/18 10:59:47;;;;;;;7.72;5.90;;;;;;;19.49;55.29;100254.28;5019043;28;20029;-71
2023/09/18 11:02:17;;;;;;;8.77;6.88;;;;;;;19.55;54.77;100250.28;5014155;28;20112;-71
2023/09/18 11:04:44;;;;;;;10.90;6.65;;;;;;;19.43;54.46;100248.66;5041721;28;20139;-71
2023/09/18 11:07:20;;;;;;;9.82;7.32;;;;;;;19.55;53.86;100245.00;5019753;28;20037;-71
2023/09/18 11:09:46;;;;;;;11.52;6.90;;;;;;;20.01;53.85;100251.47;5021620;28;20517;-69
2023/09/18 11:12:15;;;;;;;9.95;6.35;;;;;;;19.80;53.69;100256.06;5014955;28;20033;-71
2023/09/18 11:14:52;;;;;;;10.07;5.75;;;;;;;19.68;54.03;100256.19;5021824;28;20112;-71
2023/09/18 11:17:40;;;;;;;7.75;6.38;;;;;;;19.02;55.68;100261.88;5020976;28;20055;-71
2023/09/18 11:20:20;;;;;;;10.93;6.53;;;;;;;19.54;53.87;100255.69;5021545;28;20111;-71